createdAt,value
2023-02-06T00:04:18.447Z,17.71
2023-02-06T00:14:19.994Z,17.73
2023-02-06T00:24:21.313Z,17.74
2023-02-06T00:34:22.545Z,17.78
2023-02-06T00:44:23.775Z,17.78
2023-02-06T00:54:25.012Z,17.79
2023-02-06T01:04:26.286Z,17.82
2023-02-06T01:14:27.522Z,17.81
2023-02-06T01:24:28.800Z,17.82
2023-02-06T01:34:30.077Z,17.90
2023-02-06T01:44:31.375Z,17.86
2023-02-06T01:54:32.645Z,17.86
2023-02-06T02:04:33.908Z,17.87
2023-02-06T02:14:35.156Z,17.90
2023-02-06T02:24:36.394Z,17.87
2023-02-06T02:34:37.647Z,17.93
2023-02-06T02:44:38.930Z,17.95
2023-02-06T02:54:40.239Z,17.95
2023-02-06T03:04:41.545Z,17.92
2023-02-06T03:14:42.910Z,17.94
2023-02-06T03:24:44.174Z,18.08
2023-02-06T03:34:45.527Z,17.99
2023-02-06T03:44:46.765Z,18.04
2023-02-06T03:54:48.041Z,18.04
2023-02-06T04:04:49.353Z,18.07
2023-02-06T04:14:50.629Z,17.99
2023-02-06T04:24:51.940Z,18.11
2023-02-06T04:34:53.190Z,18.05
2023-02-06T04:44:54.446Z,18.05
2023-02-06T04:54:55.691Z,18.05
2023-02-06T05:04:56.942Z,18.10
2023-02-06T05:14:58.239Z,18.10
2023-02-06T05:24:59.521Z,18.15
2023-02-06T05:35:00.797Z,18.05
2023-02-06T05:45:02.058Z,18.21
2023-02-06T05:55:03.304Z,18.22
2023-02-06T06:05:04.625Z,18.21
2023-02-06T06:15:05.997Z,18.15
2023-02-06T06:25:07.319Z,18.21
2023-02-06T06:35:08.574Z,18.21
2023-02-06T06:45:10.036Z,18.19
2023-02-06T06:55:11.359Z,18.25
2023-02-06T07:05:12.620Z,18.26
2023-02-06T07:15:13.874Z,18.17
2023-02-06T07:25:15.180Z,18.18
2023-02-06T07:35:16.654Z,18.25
2023-02-06T07:45:18.168Z,18.26
2023-02-06T07:55:19.548Z,18.26
2023-02-06T08:05:20.914Z,18.29
2023-02-06T08:15:22.452Z,18.30
2023-02-06T08:25:23.716Z,18.28
2023-02-06T08:35:25.212Z,18.25
2023-02-06T08:45:26.735Z,18.28
2023-02-06T08:55:28.254Z,18.28
2023-02-06T09:05:29.679Z,18.30
2023-02-06T09:15:31.102Z,18.30
2023-02-06T09:25:32.616Z,18.26
2023-02-06T09:35:33.879Z,18.26
2023-02-06T09:45:35.471Z,18.26
2023-02-06T09:55:37.231Z,18.27
2023-02-06T10:05:39.059Z,18.29
2023-02-06T10:15:40.749Z,18.31
2023-02-06T10:25:42.141Z,18.30
2023-02-06T10:35:43.503Z,18.35
2023-02-06T10:45:44.848Z,18.30
2023-02-06T10:55:48.795Z,18.26
2023-02-06T11:05:52.698Z,18.28
2023-02-06T11:16:00.587Z,18.28
2023-02-06T11:26:08.795Z,18.30
2023-02-06T11:36:16.675Z,18.38
2023-02-06T11:46:25.619Z,18.35
2023-02-06T11:56:34.136Z,18.29
2023-02-06T12:06:41.650Z,18.37
2023-02-06T12:16:49.639Z,18.49
2023-02-06T12:26:58.906Z,18.43
2023-02-06T12:37:06.594Z,18.42
2023-02-06T12:47:14.556Z,18.47
2023-02-06T12:57:22.626Z,18.46
2023-02-06T13:07:33.934Z,18.45
2023-02-06T13:17:39.713Z,18.37
2023-02-06T13:27:48.145Z,18.44
2023-02-06T13:37:56.817Z,18.43
2023-02-06T13:48:04.709Z,18.40
2023-02-06T13:58:12.794Z,18.42
2023-02-06T14:08:20.773Z,18.36
2023-02-06T14:18:29.630Z,18.34
2023-02-06T14:28:37.615Z,18.35
2023-02-06T14:39:03.964Z,18.36
2023-02-06T14:49:05.256Z,18.33
2023-02-06T14:59:10.410Z,18.24
2023-02-06T15:09:15.981Z,18.30
2023-02-06T15:19:21.066Z,18.19
2023-02-06T15:29:32.350Z,18.19
2023-02-06T15:39:41.744Z,18.17
2023-02-06T15:49:49.551Z,18.10
2023-02-06T15:59:58.832Z,18.03
2023-02-06T16:10:05.688Z,17.96
2023-02-06T16:20:14.514Z,17.95
2023-02-06T16:40:41.771Z,17.88
2023-02-06T16:50:43.020Z,17.87
2023-02-06T17:00:44.421Z,17.87
2023-02-06T17:10:45.855Z,17.88
2023-02-06T17:20:47.255Z,17.87
2023-02-06T17:30:48.731Z,17.85
2023-02-06T17:40:50.170Z,17.83
2023-02-06T17:50:51.545Z,17.82
2023-02-06T18:00:53.100Z,17.76
2023-02-06T18:10:54.670Z,17.75
2023-02-06T18:20:56.173Z,17.74
2023-02-06T18:30:57.637Z,17.82
2023-02-06T18:40:59.172Z,17.71
2023-02-06T18:51:00.451Z,17.70
2023-02-06T19:01:01.996Z,17.69
2023-02-06T19:11:03.544Z,17.62
2023-02-06T19:21:04.991Z,17.64
2023-02-06T19:31:06.353Z,17.70
2023-02-06T19:41:07.995Z,17.67
2023-02-06T19:51:09.510Z,17.64
2023-02-06T20:01:11.064Z,17.73
2023-02-06T20:11:12.626Z,17.58
2023-02-06T20:21:14.094Z,17.73
2023-02-06T20:31:15.907Z,17.63
2023-02-06T20:41:17.534Z,17.62
2023-02-06T20:51:18.793Z,17.65
2023-02-06T21:01:20.221Z,17.68
2023-02-06T21:11:21.519Z,17.62
2023-02-06T21:21:22.895Z,17.58
2023-02-06T21:31:24.254Z,17.52
2023-02-06T21:41:25.650Z,17.53
2023-02-06T21:51:27.197Z,17.55
2023-02-06T22:01:28.790Z,17.54
2023-02-06T22:11:30.347Z,17.52
2023-02-06T22:21:31.682Z,17.51
2023-02-06T22:31:33.038Z,17.55
2023-02-06T22:41:34.317Z,17.50
2023-02-06T22:51:35.721Z,17.51
2023-02-06T23:01:37.158Z,17.52
2023-02-06T23:11:38.462Z,17.59
2023-02-06T23:21:39.770Z,17.63
2023-02-06T23:31:41.061Z,17.63
2023-02-06T23:41:42.349Z,17.64
2023-02-06T23:51:43.611Z,17.67
